createdAt,value
2023-05-25T00:01:44.209Z,61.00
2023-05-25T00:04:17.654Z,63.06
2023-05-25T00:06:47.424Z,61.79
2023-05-25T00:09:15.647Z,58.96
2023-05-25T00:11:43.569Z,58.08
2023-05-25T00:14:11.508Z,59.91
2023-05-25T00:16:41.033Z,61.96
2023-05-25T00:19:10.834Z,63.66
2023-05-25T00:21:39.022Z,61.50
2023-05-25T00:24:07.670Z,58.65
2023-05-25T00:26:36.153Z,58.52
2023-05-25T00:29:04.915Z,60.80
2023-05-25T00:31:33.580Z,62.60
2023-05-25T00:34:01.788Z,63.60
2023-05-25T00:36:29.750Z,61.00
2023-05-25T00:38:57.799Z,58.54
2023-05-25T00:41:27.285Z,59.70
2023-05-25T00:43:55.280Z,61.72
2023-05-25T00:46:23.788Z,63.62
2023-05-25T00:48:54.831Z,61.78
2023-05-25T00:51:22.949Z,59.01
2023-05-25T00:53:50.975Z,57.79
2023-05-25T00:56:28.310Z,59.82
2023-05-25T00:58:59.162Z,62.08
2023-05-25T01:01:27.642Z,63.70
2023-05-25T01:03:57.840Z,61.40
2023-05-25T01:06:27.311Z,58.65
2023-05-25T01:09:00.769Z,58.70
2023-05-25T01:11:33.180Z,60.99
2023-05-25T01:14:01.834Z,63.22
2023-05-25T01:16:30.070Z,61.88
2023-05-25T01:18:58.187Z,59.19
2023-05-25T01:21:52.002Z,58.11
2023-05-25T01:24:32.866Z,60.51
2023-05-25T01:27:06.296Z,62.66
2023-05-25T01:29:35.396Z,63.25
2023-05-25T01:32:04.575Z,60.57
2023-05-25T01:34:32.830Z,58.13
2023-05-25T01:37:00.905Z,59.42
2023-05-25T01:39:28.863Z,61.62
2023-05-25T01:41:56.738Z,63.69
2023-05-25T01:44:26.095Z,62.06
2023-05-25T01:47:03.878Z,59.39
2023-05-25T01:50:23.156Z,58.14
2023-05-25T01:53:04.078Z,60.87
2023-05-25T01:55:48.438Z,63.14
2023-05-25T01:58:17.182Z,62.41
2023-05-25T02:00:47.384Z,59.77
2023-05-25T02:03:15.855Z,57.88
2023-05-25T02:05:44.054Z,59.71
2023-05-25T02:08:12.167Z,61.93
2023-05-25T02:10:39.998Z,63.80
2023-05-25T02:13:08.000Z,61.89
2023-05-25T02:15:36.062Z,59.40
2023-05-25T02:18:05.880Z,58.13
2023-05-25T02:20:33.783Z,60.20
2023-05-25T02:23:01.819Z,62.09
2023-05-25T02:25:29.740Z,63.90
2023-05-25T02:27:57.786Z,61.79
2023-05-25T02:30:25.859Z,59.24
2023-05-25T02:32:54.156Z,58.30
2023-05-25T02:35:22.817Z,60.45
2023-05-25T02:37:51.223Z,62.62
2023-05-25T02:40:19.375Z,63.42
2023-05-25T02:42:47.255Z,60.96
2023-05-25T02:45:15.506Z,58.45
2023-05-25T02:47:43.451Z,59.59
2023-05-25T02:50:11.503Z,61.95
2023-05-25T02:52:39.927Z,63.45
2023-05-25T02:55:10.391Z,61.21
2023-05-25T02:57:39.041Z,58.50
2023-05-25T03:00:07.829Z,58.70
2023-05-25T03:02:35.728Z,60.71
2023-05-25T03:05:04.779Z,62.83
2023-05-25T03:07:33.259Z,62.23
2023-05-25T03:10:01.134Z,59.20
2023-05-25T03:12:29.155Z,57.78
2023-05-25T03:14:57.290Z,59.90
2023-05-25T03:17:25.160Z,61.92
2023-05-25T03:19:53.299Z,63.48
2023-05-25T03:22:21.204Z,61.66
2023-05-25T03:24:50.265Z,58.89
2023-05-25T03:27:18.327Z,58.22
2023-05-25T03:29:49.217Z,60.52
2023-05-25T03:32:17.676Z,62.67
2023-05-25T03:34:45.793Z,62.98
2023-05-25T03:37:13.767Z,60.56
2023-05-25T03:39:41.605Z,58.28
2023-05-25T03:42:09.641Z,59.52
2023-05-25T03:44:39.308Z,61.50
2023-05-25T03:47:08.976Z,63.40
2023-05-25T03:49:36.811Z,61.50
2023-05-25T03:52:06.316Z,58.38
2023-05-25T03:54:34.278Z,58.32
2023-05-25T03:57:03.805Z,60.08
2023-05-25T03:59:31.913Z,61.63
2023-05-25T04:01:59.851Z,62.92
2023-05-25T04:04:28.354Z,61.60
2023-05-25T04:06:56.423Z,58.39
2023-05-25T04:09:24.462Z,58.85
2023-05-25T04:11:52.524Z,60.58
2023-05-25T04:14:21.513Z,61.85
2023-05-25T04:16:49.519Z,63.25
2023-05-25T04:19:17.617Z,60.95
2023-05-25T04:21:45.678Z,57.84
2023-05-25T04:24:13.594Z,58.50
2023-05-25T04:26:41.573Z,59.84
2023-05-25T04:29:10.104Z,61.17
2023-05-25T04:31:39.257Z,61.77
2023-05-25T04:34:09.680Z,62.25
2023-05-25T04:36:38.980Z,62.98
2023-05-25T04:39:07.540Z,60.24
2023-05-25T04:41:37.753Z,56.71
2023-05-25T04:44:09.895Z,57.25
2023-05-25T04:46:39.180Z,58.36
2023-05-25T04:49:08.654Z,59.20
2023-05-25T04:51:37.499Z,59.78
2023-05-25T04:54:06.057Z,60.24
2023-05-25T04:56:34.114Z,60.63
2023-05-25T04:59:01.972Z,60.91
2023-05-25T05:01:30.984Z,61.27
2023-05-25T05:03:59.076Z,61.53
2023-05-25T05:06:27.311Z,61.33
2023-05-25T05:08:55.153Z,61.63
2023-05-25T05:11:23.668Z,62.00
2023-05-25T05:13:51.501Z,62.10
2023-05-25T05:16:19.491Z,61.89
2023-05-25T05:18:47.473Z,62.26
2023-05-25T05:21:15.421Z,62.76
2023-05-25T05:23:43.889Z,60.60
2023-05-25T05:26:15.526Z,56.72
2023-05-25T05:28:43.429Z,55.79
2023-05-25T05:31:12.346Z,56.35
2023-05-25T05:33:40.466Z,57.18
2023-05-25T05:36:09.122Z,57.14
2023-05-25T05:38:38.214Z,57.33
2023-05-25T05:41:14.161Z,57.50
2023-05-25T05:43:43.842Z,57.59
2023-05-25T05:46:11.712Z,57.55
2023-05-25T05:48:39.800Z,57.62
2023-05-25T05:51:07.716Z,57.63
2023-05-25T05:53:35.856Z,57.71
2023-05-25T05:56:04.132Z,57.56
2023-05-25T05:58:32.575Z,57.42
2023-05-25T06:01:01.524Z,57.18
2023-05-25T06:03:29.386Z,56.91
2023-05-25T06:05:57.247Z,56.93
2023-05-25T06:08:25.222Z,56.64
2023-05-25T06:10:53.275Z,56.56
2023-05-25T06:13:21.448Z,56.46
2023-05-25T06:15:49.237Z,56.37
2023-05-25T06:18:17.036Z,55.60
2023-05-25T06:20:44.996Z,55.07
2023-05-25T06:23:14.143Z,54.55
2023-05-25T06:25:42.175Z,53.68
2023-05-25T06:28:10.310Z,52.76
2023-05-25T06:30:38.408Z,52.09
2023-05-25T06:33:06.218Z,51.78
2023-05-25T06:35:34.063Z,51.82
2023-05-25T06:38:03.153Z,51.73
2023-05-25T06:40:31.400Z,50.77
2023-05-25T06:42:59.278Z,50.66
2023-05-25T06:45:27.153Z,50.18
2023-05-25T06:47:55.155Z,49.92
2023-05-25T06:50:23.179Z,50.42
2023-05-25T06:52:51.306Z,51.38
2023-05-25T06:55:19.189Z,50.90
2023-05-25T06:57:47.174Z,50.24
2023-05-25T07:00:16.509Z,49.58
2023-05-25T07:02:44.384Z,50.01
2023-05-25T07:05:12.523Z,48.58
2023-05-25T07:07:40.502Z,48.10
2023-05-25T07:10:09.478Z,48.52
2023-05-25T07:12:37.341Z,48.23
2023-05-25T07:15:06.409Z,47.95
2023-05-25T07:17:36.488Z,48.38
2023-05-25T07:20:06.492Z,49.88
2023-05-25T07:22:34.941Z,48.78
2023-05-25T07:25:02.905Z,49.07
2023-05-25T07:27:31.580Z,49.40
2023-05-25T07:29:59.579Z,48.60
2023-05-25T07:32:27.450Z,48.75
2023-05-25T07:34:55.387Z,48.78
2023-05-25T07:37:23.374Z,49.20
2023-05-25T07:39:51.399Z,49.74
2023-05-25T07:42:21.150Z,48.43
2023-05-25T07:44:49.342Z,48.91
2023-05-25T07:47:17.318Z,48.29
2023-05-25T07:49:45.142Z,47.08
2023-05-25T07:52:13.137Z,46.79
2023-05-25T07:54:41.224Z,47.33
2023-05-25T07:57:09.150Z,46.27
2023-05-25T07:59:37.293Z,45.77
2023-05-25T08:02:05.170Z,44.50
2023-05-25T08:04:33.925Z,44.87
2023-05-25T08:07:02.683Z,43.77
2023-05-25T08:09:30.552Z,43.85
2023-05-25T08:12:21.279Z,43.68
2023-05-25T08:14:46.376Z,44.42
2023-05-25T08:17:14.378Z,44.77
2023-05-25T08:19:42.379Z,43.30
2023-05-25T08:22:11.611Z,42.70
2023-05-25T08:24:39.685Z,42.90
2023-05-25T08:27:07.644Z,44.29
2023-05-25T08:29:35.875Z,43.42
2023-05-25T08:32:04.731Z,42.65
2023-05-25T08:34:32.757Z,43.32
2023-05-25T08:37:01.360Z,43.49
2023-05-25T08:39:29.258Z,43.35
2023-05-25T08:41:57.255Z,43.02
2023-05-25T08:44:27.366Z,42.69
2023-05-25T08:46:57.228Z,43.29
2023-05-25T08:49:26.072Z,43.46
2023-05-25T08:51:55.175Z,43.58
2023-05-25T08:54:26.449Z,44.30
2023-05-25T08:56:59.342Z,44.48
2023-05-25T08:59:51.796Z,44.48
2023-05-25T09:02:25.110Z,45.25
2023-05-25T09:04:53.265Z,45.30
2023-05-25T09:07:21.365Z,45.77
2023-05-25T09:09:49.257Z,45.80
2023-05-25T09:12:17.266Z,45.95
2023-05-25T09:14:48.088Z,46.74
2023-05-25T09:17:18.600Z,47.08
2023-05-25T09:19:47.248Z,47.80
2023-05-25T09:22:16.561Z,47.72
2023-05-25T09:24:45.581Z,47.79
2023-05-25T09:27:22.440Z,47.75
2023-05-25T09:29:51.138Z,48.06
2023-05-25T09:32:19.987Z,48.22
2023-05-25T09:34:48.614Z,48.36
2023-05-25T09:37:18.998Z,47.99
2023-05-25T09:39:48.015Z,47.99
2023-05-25T09:42:17.196Z,47.68
2023-05-25T09:44:45.248Z,47.42
2023-05-25T09:47:14.035Z,47.39
2023-05-25T09:49:44.408Z,47.56
2023-05-25T09:52:12.623Z,48.00
2023-05-25T09:54:44.440Z,48.40
2023-05-25T09:57:12.282Z,48.51
2023-05-25T09:59:40.148Z,48.63
2023-05-25T10:02:08.019Z,47.78
2023-05-25T10:04:35.987Z,47.86
2023-05-25T10:07:04.837Z,47.82
2023-05-25T10:09:41.756Z,47.69
2023-05-25T10:12:10.366Z,47.44
2023-05-25T10:14:38.987Z,47.71
2023-05-25T10:17:10.502Z,47.41
2023-05-25T10:19:42.891Z,47.49
2023-05-25T10:22:22.205Z,47.86
2023-05-25T10:25:05.842Z,47.96
2023-05-25T10:27:41.390Z,47.82
2023-05-25T10:30:10.544Z,48.40
2023-05-25T10:32:38.621Z,49.29
2023-05-25T10:35:07.452Z,49.41
2023-05-25T10:37:36.241Z,49.42
2023-05-25T10:40:08.798Z,48.99
2023-05-25T10:42:38.016Z,48.47
2023-05-25T10:45:08.801Z,48.48
2023-05-25T10:47:42.390Z,48.26
2023-05-25T10:50:34.136Z,48.07
2023-05-25T10:53:13.769Z,48.08
2023-05-25T10:55:54.992Z,47.04
2023-05-25T10:58:23.709Z,47.09
2023-05-25T11:01:04.325Z,47.17
2023-05-25T11:03:44.872Z,47.87
2023-05-25T11:06:21.795Z,47.69
2023-05-25T11:08:59.881Z,48.10
2023-05-25T11:11:42.625Z,47.97
2023-05-25T11:14:27.781Z,48.21
2023-05-25T11:17:14.654Z,48.13
2023-05-25T11:19:51.910Z,47.58
2023-05-25T11:22:32.045Z,47.37
2023-05-25T11:25:01.665Z,47.81
2023-05-25T11:27:32.100Z,48.10
2023-05-25T11:30:00.632Z,47.96
2023-05-25T11:32:29.348Z,47.62
2023-05-25T11:34:58.545Z,47.51
2023-05-25T11:37:33.385Z,47.06
2023-05-25T11:40:01.562Z,46.89
2023-05-25T11:42:29.561Z,46.84
2023-05-25T11:45:02.736Z,46.31
2023-05-25T11:47:32.727Z,45.27
2023-05-25T11:50:01.743Z,45.00
2023-05-25T11:52:29.728Z,45.02
2023-05-25T11:54:57.631Z,44.72
2023-05-25T11:57:26.345Z,44.70
2023-05-25T11:59:57.610Z,44.28
2023-05-25T12:02:25.696Z,43.52
2023-05-25T12:05:01.498Z,42.78
2023-05-25T12:07:34.238Z,42.40
2023-05-25T12:10:11.922Z,41.03
2023-05-25T12:12:51.773Z,42.43
2023-05-25T12:15:24.364Z,42.24
2023-05-25T12:17:53.952Z,42.00
2023-05-25T12:20:22.452Z,41.24
2023-05-25T12:22:50.781Z,40.15
2023-05-25T12:25:21.566Z,41.37
2023-05-25T12:27:49.755Z,40.84
2023-05-25T12:30:17.974Z,42.03
2023-05-25T12:33:15.785Z,41.99
2023-05-25T12:35:47.569Z,42.57
2023-05-25T12:38:21.553Z,42.86
2023-05-25T12:41:08.517Z,42.59
2023-05-25T12:43:43.253Z,41.75
2023-05-25T12:46:11.841Z,41.50
2023-05-25T12:48:40.216Z,41.57
2023-05-25T12:51:10.588Z,40.62
2023-05-25T12:53:51.844Z,40.20
2023-05-25T12:56:19.800Z,40.86
2023-05-25T12:58:47.750Z,40.17
2023-05-25T13:01:15.621Z,39.72
2023-05-25T13:03:43.863Z,40.17
2023-05-25T13:06:12.598Z,39.98
2023-05-25T13:08:40.837Z,40.67
2023-05-25T13:11:09.057Z,40.29
2023-05-25T13:13:37.536Z,40.52
2023-05-25T13:16:05.793Z,40.53
2023-05-25T13:18:33.968Z,40.21
2023-05-25T13:21:02.351Z,40.91
2023-05-25T13:23:31.593Z,40.45
2023-05-25T13:25:59.960Z,39.84
2023-05-25T13:28:30.756Z,40.19
2023-05-25T13:30:58.784Z,40.37
2023-05-25T13:33:27.014Z,40.48
2023-05-25T13:35:59.237Z,40.97
2023-05-25T13:38:29.643Z,40.59
2023-05-25T13:40:58.124Z,40.20
2023-05-25T13:43:26.690Z,40.67
2023-05-25T13:45:54.840Z,40.81
2023-05-25T13:48:22.900Z,40.94
2023-05-25T13:50:51.251Z,41.17
2023-05-25T13:53:19.329Z,41.53
2023-05-25T13:55:47.769Z,41.92
2023-05-25T13:58:15.634Z,42.36
2023-05-25T14:00:43.930Z,42.05
2023-05-25T14:03:12.621Z,41.86
2023-05-25T14:05:40.841Z,41.67
2023-05-25T14:08:09.172Z,41.59
2023-05-25T14:10:38.951Z,42.31
2023-05-25T14:13:06.786Z,42.46
2023-05-25T14:15:34.714Z,42.55
2023-05-25T14:18:02.811Z,42.64
2023-05-25T14:20:33.921Z,43.14
2023-05-25T14:23:01.938Z,43.29
2023-05-25T14:25:29.724Z,43.22
2023-05-25T14:27:57.995Z,43.04
2023-05-25T14:30:25.913Z,42.65
2023-05-25T14:32:53.889Z,42.71
2023-05-25T14:35:21.822Z,42.70
2023-05-25T14:37:49.843Z,42.73
2023-05-25T14:40:17.793Z,43.04
2023-05-25T14:42:45.663Z,43.19
2023-05-25T14:45:15.874Z,43.26
2023-05-25T14:47:44.541Z,43.77
2023-05-25T14:50:12.532Z,44.07
2023-05-25T14:52:42.177Z,44.13
2023-05-25T14:55:10.652Z,44.05
2023-05-25T14:57:38.772Z,44.16
2023-05-25T15:00:07.743Z,44.21
2023-05-25T15:02:35.833Z,44.01
2023-05-25T15:05:04.074Z,44.14
2023-05-25T15:07:31.950Z,44.03
2023-05-25T15:09:59.991Z,44.38
2023-05-25T15:12:27.839Z,44.17
2023-05-25T15:14:55.765Z,44.05
2023-05-25T15:17:23.874Z,44.20
2023-05-25T15:19:51.709Z,44.11
2023-05-25T15:22:19.699Z,44.44
2023-05-25T15:24:47.718Z,44.79
2023-05-25T15:27:15.776Z,44.69
2023-05-25T15:29:43.709Z,44.17
2023-05-25T15:32:14.029Z,44.15
2023-05-25T15:34:42.202Z,44.26
2023-05-25T15:37:11.913Z,44.13
2023-05-25T15:39:40.881Z,44.78
2023-05-25T15:42:08.932Z,44.68
2023-05-25T15:44:37.020Z,43.63
2023-05-25T15:47:05.119Z,43.73
2023-05-25T15:49:36.842Z,43.89
2023-05-25T15:52:05.380Z,44.16
2023-05-25T15:54:33.297Z,44.34
2023-05-25T15:57:02.232Z,44.37
2023-05-25T15:59:30.197Z,44.20
2023-05-25T16:01:58.077Z,44.55
2023-05-25T16:04:26.578Z,44.46
2023-05-25T16:06:54.507Z,44.23
2023-05-25T16:09:22.521Z,44.11
2023-05-25T16:11:50.392Z,44.47
2023-05-25T16:14:18.325Z,44.70
2023-05-25T16:16:46.270Z,44.33
2023-05-25T16:19:14.498Z,44.45
2023-05-25T16:21:42.406Z,44.31
2023-05-25T16:24:10.803Z,44.39
2023-05-25T16:26:38.689Z,44.64
2023-05-25T16:29:06.500Z,44.56
2023-05-25T16:31:34.826Z,44.45
2023-05-25T16:34:05.984Z,44.47
2023-05-25T16:36:33.854Z,44.58
2023-05-25T16:39:01.853Z,44.67
2023-05-25T16:41:29.828Z,44.79
2023-05-25T16:43:57.789Z,44.94
2023-05-25T16:46:25.890Z,45.31
2023-05-25T16:48:53.890Z,45.00
2023-05-25T16:51:21.808Z,45.02
2023-05-25T16:53:51.027Z,44.86
2023-05-25T16:56:21.529Z,45.13
2023-05-25T16:58:49.516Z,45.23
2023-05-25T17:01:17.517Z,45.29
2023-05-25T17:03:45.561Z,45.22
2023-05-25T17:06:14.102Z,45.29
2023-05-25T17:08:41.997Z,45.26
2023-05-25T17:11:09.797Z,45.15
2023-05-25T17:13:38.068Z,45.11
2023-05-25T17:16:06.223Z,45.16
2023-05-25T17:18:34.262Z,45.29
2023-05-25T17:21:02.274Z,45.46
2023-05-25T17:23:30.182Z,45.82
2023-05-25T17:25:58.576Z,46.57
2023-05-25T17:28:27.819Z,46.96
2023-05-25T17:30:56.691Z,46.82
2023-05-25T17:33:26.117Z,46.84
2023-05-25T17:35:54.085Z,47.15
2023-05-25T17:38:22.343Z,47.02
2023-05-25T17:40:50.455Z,46.88
2023-05-25T17:43:19.258Z,46.83
2023-05-25T17:45:48.010Z,46.69
2023-05-25T17:48:16.182Z,46.77
2023-05-25T17:50:44.133Z,46.84
2023-05-25T17:53:12.898Z,46.86
2023-05-25T17:55:40.946Z,47.00
2023-05-25T17:58:08.823Z,47.34
2023-05-25T18:00:37.430Z,47.28
2023-05-25T18:03:05.622Z,47.35
2023-05-25T18:05:33.770Z,47.81
2023-05-25T18:08:01.920Z,47.85
2023-05-25T18:10:30.392Z,48.29
2023-05-25T18:12:58.359Z,48.60
2023-05-25T18:15:26.510Z,48.58
2023-05-25T18:17:54.580Z,48.92
2023-05-25T18:20:22.641Z,49.09
2023-05-25T18:22:50.709Z,49.47
2023-05-25T18:25:18.734Z,49.43
2023-05-25T18:27:47.192Z,49.57
2023-05-25T18:30:18.886Z,49.71
2023-05-25T18:32:47.359Z,49.81
2023-05-25T18:35:15.942Z,49.88
2023-05-25T18:37:44.216Z,50.16
2023-05-25T18:40:13.092Z,50.48
2023-05-25T18:42:41.505Z,50.74
2023-05-25T18:45:10.747Z,50.77
2023-05-25T18:47:39.508Z,50.99
2023-05-25T18:50:08.865Z,51.30
2023-05-25T18:52:37.042Z,51.36
2023-05-25T18:55:08.547Z,51.72
2023-05-25T18:57:37.458Z,51.95
2023-05-25T19:00:08.933Z,52.25
2023-05-25T19:02:38.662Z,52.39
2023-05-25T19:05:07.925Z,52.47
2023-05-25T19:07:47.000Z,52.70
2023-05-25T19:10:23.829Z,52.74
2023-05-25T19:12:52.083Z,53.00
2023-05-25T19:15:20.237Z,53.03
2023-05-25T19:17:48.382Z,53.30
2023-05-25T19:20:17.109Z,53.26
2023-05-25T19:22:45.298Z,53.52
2023-05-25T19:25:13.369Z,53.71
2023-05-25T19:27:41.398Z,53.41
2023-05-25T19:30:09.905Z,54.27
2023-05-25T19:32:38.212Z,54.46
2023-05-25T19:35:06.737Z,54.76
2023-05-25T19:37:37.835Z,54.89
2023-05-25T19:40:09.117Z,54.26
2023-05-25T19:42:38.000Z,54.68
2023-05-25T19:45:06.950Z,54.91
2023-05-25T19:47:35.325Z,55.30
2023-05-25T19:50:04.363Z,55.51
2023-05-25T19:52:32.858Z,56.01
2023-05-25T19:55:02.034Z,55.98
2023-05-25T19:57:32.304Z,56.37
2023-05-25T20:00:01.389Z,56.85
2023-05-25T20:02:30.094Z,57.25
2023-05-25T20:04:58.727Z,57.55
2023-05-25T20:07:27.143Z,57.87
2023-05-25T20:09:55.514Z,58.38
2023-05-25T20:12:24.033Z,58.68
2023-05-25T20:14:52.371Z,58.77
2023-05-25T20:17:21.366Z,59.37
2023-05-25T20:19:51.145Z,59.26
2023-05-25T20:22:19.931Z,59.23
2023-05-25T20:24:50.781Z,59.59
2023-05-25T20:27:19.430Z,59.94
2023-05-25T20:29:47.929Z,60.28
2023-05-25T20:32:16.323Z,60.61
2023-05-25T20:34:44.239Z,60.74
2023-05-25T20:37:12.307Z,61.12
2023-05-25T20:39:40.179Z,61.37
2023-05-25T20:42:08.185Z,61.50
2023-05-25T20:44:36.410Z,61.92
2023-05-25T20:47:05.190Z,59.84
2023-05-25T20:49:33.238Z,58.15
2023-05-25T20:52:01.357Z,58.86
2023-05-25T20:54:29.389Z,60.14
2023-05-25T20:56:57.376Z,61.25
2023-05-25T20:59:25.513Z,61.95
2023-05-25T21:01:53.670Z,61.96
2023-05-25T21:04:21.792Z,59.45
2023-05-25T21:06:49.923Z,57.37
2023-05-25T21:09:17.901Z,58.54
2023-05-25T21:11:45.842Z,59.59
2023-05-25T21:14:13.862Z,60.42
2023-05-25T21:16:42.115Z,61.00
2023-05-25T21:19:10.971Z,61.87
2023-05-25T21:21:39.114Z,62.06
2023-05-25T21:24:07.178Z,59.47
2023-05-25T21:26:35.455Z,57.36
2023-05-25T21:29:03.441Z,58.28
2023-05-25T21:31:31.515Z,59.59
2023-05-25T21:34:00.249Z,60.85
2023-05-25T21:36:28.521Z,61.46
2023-05-25T21:38:56.609Z,62.18
2023-05-25T21:41:26.289Z,60.12
2023-05-25T21:43:54.203Z,57.63
2023-05-25T21:46:22.141Z,58.00
2023-05-25T21:48:50.738Z,59.30
2023-05-25T21:51:19.519Z,60.42
2023-05-25T21:53:48.434Z,61.21
2023-05-25T21:56:17.140Z,61.76
2023-05-25T21:58:45.704Z,62.66
2023-05-25T22:03:55.382Z,58.31
2023-05-25T22:06:23.954Z,57.94
2023-05-25T22:08:51.822Z,59.21
2023-05-25T22:11:22.147Z,60.15
2023-05-25T22:13:50.137Z,60.73
2023-05-25T22:16:18.103Z,61.68
2023-05-25T22:18:46.095Z,62.50
2023-05-25T22:21:14.886Z,60.02
2023-05-25T22:23:42.793Z,57.87
2023-05-25T22:26:10.735Z,58.49
2023-05-25T22:28:38.625Z,59.72
2023-05-25T22:31:06.690Z,60.86
2023-05-25T22:33:34.668Z,61.55
2023-05-25T22:36:02.563Z,62.64
2023-05-25T22:38:30.465Z,60.76
2023-05-25T22:40:59.050Z,57.91
2023-05-25T22:43:27.129Z,57.97
2023-05-25T22:45:55.130Z,59.12
2023-05-25T22:48:23.129Z,60.08
2023-05-25T22:50:51.130Z,61.05
2023-05-25T22:53:19.241Z,61.70
2023-05-25T22:55:47.630Z,62.49
2023-05-25T22:58:15.680Z,61.14
2023-05-25T23:00:43.683Z,57.39
2023-05-25T23:03:11.692Z,57.85
2023-05-25T23:05:39.722Z,59.46
2023-05-25T23:08:08.741Z,60.42
2023-05-25T23:10:36.664Z,61.22
2023-05-25T23:13:06.328Z,61.96
2023-05-25T23:15:36.592Z,62.78
2023-05-25T23:18:04.560Z,60.39
2023-05-25T23:20:34.071Z,58.13
2023-05-25T23:23:02.093Z,59.19
2023-05-25T23:25:30.055Z,60.69
2023-05-25T23:27:58.030Z,61.57
2023-05-25T23:30:26.228Z,62.52
2023-05-25T23:32:54.266Z,62.40
2023-05-25T23:35:23.318Z,59.13
2023-05-25T23:37:52.139Z,58.81
2023-05-25T23:40:20.233Z,59.99
2023-05-25T23:42:48.120Z,61.20
2023-05-25T23:45:16.848Z,62.34
2023-05-25T23:47:44.909Z,61.04
2023-05-25T23:50:12.809Z,57.47
2023-05-25T23:52:41.719Z,58.42
2023-05-25T23:55:09.931Z,60.01
2023-05-25T23:57:38.409Z,61.23
